Time;durP1;ratioP1;P1;durP2;ratioP2;P2;SDS_P1;SDS_P2;PMS_P1;PMS_P2;Temp;Humidity;BMP_temperature;BMP_pressure;BME280_temperature;BME280_humidity;BME280_pressure;Samples;Min_cycle;Max_cycle;Signal;HPM_P1;HPM_P2
2023/08/10 00:01:41;;;;;;;7.80;2.15;;;12.70;99.90;;;;;;5054024;28;20017;-74
2023/08/10 00:04:07;;;;;;;44.17;3.17;;;12.60;99.90;;;;;;5053979;28;20021;-74
2023/08/10 00:06:33;;;;;;;10.70;2.50;;;12.70;99.90;;;;;;5053658;28;20484;-74
2023/08/10 00:08:58;;;;;;;15.43;2.40;;;12.70;99.90;;;;;;5053935;28;20430;-74
2023/08/10 00:11:24;;;;;;;3.53;2.55;;;12.60;99.90;;;;;;5052951;28;20029;-74
2023/08/10 00:13:50;;;;;;;5.57;2.58;;;12.60;99.90;;;;;;5053861;28;20021;-74
2023/08/10 00:16:15;;;;;;;6.07;2.70;;;12.50;99.90;;;;;;5053814;28;20021;-74
2023/08/10 00:18:41;;;;;;;85.85;3.92;;;12.60;99.90;;;;;;5053534;28;20043;-74
2023/08/10 00:21:06;;;;;;;10.13;2.30;;;12.60;99.90;;;;;;5054261;28;20028;-74
2023/08/10 00:23:32;;;;;;;112.88;3.50;;;12.50;99.90;;;;;;5053770;28;20342;-74
2023/08/10 00:25:58;;;;;;;51.65;2.58;;;12.40;99.90;;;;;;5053350;28;20028;-74
2023/08/10 00:28:23;;;;;;;5.43;2.72;;;12.40;99.90;;;;;;5052537;28;20028;-74
2023/08/10 00:30:49;;;;;;;3.22;2.30;;;12.40;99.90;;;;;;5054167;28;20147;-74
2023/08/10 00:33:14;;;;;;;4.28;2.47;;;12.30;99.90;;;;;;5054129;28;20055;-74
2023/08/10 00:35:40;;;;;;;4.30;2.70;;;12.30;99.90;;;;;;5053620;28;20028;-74
2023/08/10 00:38:06;;;;;;;4.30;2.67;;;12.30;99.90;;;;;;5053490;28;20025;-74
2023/08/10 00:40:32;;;;;;;35.08;3.10;;;12.30;99.90;;;;;;5053825;28;20017;-74
2023/08/10 00:43:00;;;;;;;4.57;2.70;;;12.30;99.90;;;;;;5054291;28;20112;-74
2023/08/10 00:45:30;;;;;;;4.97;2.85;;;12.30;99.90;;;;;;5053529;28;20082;-74
2023/08/10 00:47:56;;;;;;;11.65;3.00;;;12.20;99.90;;;;;;5053378;28;20029;-74
2023/08/10 00:50:23;;;;;;;11.02;2.53;;;12.30;99.90;;;;;;5054029;28;20032;-74
2023/08/10 00:52:48;;;;;;;4.53;2.45;;;12.20;99.90;;;;;;5053714;28;20025;-74
2023/08/10 00:55:14;;;;;;;23.55;3.28;;;12.20;99.90;;;;;;5053985;28;20021;-74
2023/08/10 00:57:40;;;;;;;4.75;2.40;;;12.10;99.90;;;;;;5053781;28;20021;-74
2023/08/10 01:00:10;;;;;;;17.38;2.40;;;12.10;99.90;;;;;;5053438;28;20499;-74
2023/08/10 01:02:37;;;;;;;113.68;3.50;;;12.10;99.90;;;;;;5053829;28;20028;-74
2023/08/10 01:05:03;;;;;;;6.13;2.95;;;12.10;99.90;;;;;;5053813;28;20036;-74
2023/08/10 01:07:37;;;;;;;23.50;2.40;;;12.10;99.90;;;;;;5053059;28;20377;-74
2023/08/10 01:10:10;;;;;;;52.03;2.95;;;12.10;99.90;;;;;;5053202;28;20017;-73
2023/08/10 01:12:59;;;;;;;50.53;2.95;;;12.10;99.90;;;;;;5053229;28;20032;-73
2023/08/10 01:16:03;;;;;;;66.47;2.97;;;12.10;99.90;;;;;;5053246;28;20445;-73
2023/08/10 01:18:30;;;;;;;154.80;4.13;;;12.20;99.90;;;;;;5030699;28;20030;-74
2023/08/10 01:20:58;;;;;;;4.10;2.20;;;12.10;99.90;;;;;;5048927;28;20415;-73
2023/08/10 01:23:37;;;;;;;27.63;2.65;;;12.20;99.90;;;;;;5053102;28;20468;-73
2023/08/10 01:26:04;;;;;;;4.75;1.88;;;12.20;99.90;;;;;;5056367;28;20032;-73
2023/08/10 01:28:32;;;;;;;18.73;2.15;;;12.20;99.90;;;;;;5056875;28;20032;-73
2023/08/10 01:30:59;;;;;;;70.00;3.28;;;12.20;99.90;;;;;;5056859;28;20048;-74
2023/08/10 01:33:26;;;;;;;10.75;2.67;;;12.20;99.90;;;;;;5057222;28;20341;-73
2023/08/10 01:35:52;;;;;;;25.52;2.72;;;12.20;99.90;;;;;;5056750;28;20369;-73
2023/08/10 01:38:18;;;;;;;6.25;2.47;;;12.10;99.90;;;;;;5056672;28;20087;-73
2023/08/10 01:40:43;;;;;;;11.85;2.15;;;12.00;99.90;;;;;;5056710;28;20029;-73
2023/08/10 01:43:09;;;;;;;13.85;2.65;;;12.00;99.90;;;;;;5057185;28;20025;-73
2023/08/10 01:45:35;;;;;;;22.27;2.70;;;12.00;99.90;;;;;;5056315;28;20450;-73
2023/08/10 01:48:09;;;;;;;158.90;4.85;;;12.00;99.90;;;;;;5055968;28;20017;-75
2023/08/10 01:50:40;;;;;;;33.10;2.40;;;12.00;99.90;;;;;;5056812;28;20025;-73
2023/08/10 01:53:11;;;;;;;32.85;2.67;;;11.90;99.90;;;;;;5056236;28;20123;-73
2023/08/10 01:55:39;;;;;;;4.78;1.75;;;11.80;99.90;;;;;;5056470;28;20112;-73
2023/08/10 01:58:05;;;;;;;10.10;2.15;;;11.80;99.90;;;;;;5054998;28;20377;-73
2023/08/10 02:00:31;;;;;;;5.60;1.83;;;11.80;99.90;;;;;;5055117;28;20449;-73
2023/08/10 02:02:56;;;;;;;2.13;1.40;;;11.70;99.90;;;;;;5056195;28;20048;-73
2023/08/10 02:05:22;;;;;;;2.72;1.63;;;11.70;99.90;;;;;;5056272;28;20369;-73
2023/08/10 02:07:50;;;;;;;15.73;1.75;;;11.70;99.90;;;;;;5056735;28;20354;-73
2023/08/10 02:10:16;;;;;;;5.28;1.55;;;11.60;99.90;;;;;;5056091;28;20025;-74
2023/08/10 02:12:42;;;;;;;4.25;1.60;;;11.60;99.90;;;;;;5056888;28;20108;-74
2023/08/10 02:15:08;;;;;;;5.13;1.40;;;11.40;99.90;;;;;;5055992;28;20099;-74
2023/08/10 02:17:38;;;;;;;4.95;1.40;;;11.30;99.90;;;;;;5055862;28;20150;-74
2023/08/10 02:20:11;;;;;;;5.45;1.20;;;11.20;99.90;;;;;;5056203;28;20032;-73
2023/08/10 02:22:39;;;;;;;5.60;1.52;;;11.20;99.90;;;;;;5055845;28;20021;-73
2023/08/10 02:25:05;;;;;;;15.68;1.75;;;11.20;99.90;;;;;;5056370;28;20445;-74
2023/08/10 02:27:31;;;;;;;5.63;1.35;;;11.10;99.90;;;;;;5055774;28;20424;-74
2023/08/10 02:29:56;;;;;;;40.53;1.90;;;11.00;99.90;;;;;;5056234;28;20021;-74
2023/08/10 02:32:22;;;;;;;12.35;1.40;;;11.10;99.90;;;;;;5055457;28;20052;-74
2023/08/10 02:34:48;;;;;;;16.05;1.67;;;11.00;99.90;;;;;;5055648;28;20453;-74
2023/08/10 02:37:13;;;;;;;14.25;1.45;;;10.90;99.90;;;;;;5053179;28;20555;-74
2023/08/10 02:39:39;;;;;;;2.67;1.50;;;10.90;99.90;;;;;;5055829;28;20027;-74
2023/08/10 02:42:05;;;;;;;17.60;1.77;;;10.90;99.90;;;;;;5055852;28;20020;-73
2023/08/10 02:44:31;;;;;;;23.52;1.83;;;10.90;99.90;;;;;;5055484;28;20108;-74
2023/08/10 02:46:56;;;;;;;15.88;1.67;;;11.00;99.90;;;;;;5055412;28;20104;-73
2023/08/10 02:49:22;;;;;;;2.83;1.40;;;11.00;99.90;;;;;;5055378;28;20049;-74
2023/08/10 02:51:47;;;;;;;8.82;2.03;;;10.90;99.90;;;;;;5055253;28;20025;-74
2023/08/10 02:54:13;;;;;;;12.98;2.20;;;10.80;99.90;;;;;;5055471;28;20120;-74
2023/08/10 02:56:39;;;;;;;5.47;1.80;;;10.80;99.90;;;;;;5055089;28;20472;-73
2023/08/10 02:59:04;;;;;;;2.58;1.80;;;10.80;99.90;;;;;;5054935;28;20055;-74
2023/08/10 03:01:30;;;;;;;56.22;2.65;;;10.70;99.90;;;;;;5054152;28;20411;-74
2023/08/10 03:03:57;;;;;;;2.35;1.63;;;10.70;99.90;;;;;;5054728;28;20045;-74
2023/08/10 03:06:22;;;;;;;10.13;1.80;;;10.70;99.90;;;;;;5053787;28;20025;-73
2023/08/10 03:08:48;;;;;;;4.45;1.40;;;10.70;99.90;;;;;;5055009;28;20086;-74
2023/08/10 03:11:13;;;;;;;6.20;1.90;;;10.70;99.90;;;;;;5055287;28;20024;-74
2023/08/10 03:13:39;;;;;;;8.63;1.80;;;10.60;99.90;;;;;;5055177;28;20335;-74
2023/08/10 03:16:04;;;;;;;5.78;1.50;;;10.60;99.90;;;;;;5055215;28;20025;-74
2023/08/10 03:18:30;;;;;;;4.88;1.88;;;10.60;99.90;;;;;;5054643;28;20044;-74
2023/08/10 03:20:56;;;;;;;5.75;2.15;;;10.70;99.90;;;;;;5055071;28;20025;-74
2023/08/10 03:23:22;;;;;;;52.50;2.53;;;10.70;99.90;;;;;;5054315;28;20452;-74
2023/08/10 03:25:47;;;;;;;5.68;1.58;;;10.70;99.90;;;;;;5055159;28;20028;-74
2023/08/10 03:28:13;;;;;;;4.65;1.70;;;10.60;99.90;;;;;;5054690;28;20431;-74
2023/08/10 03:30:40;;;;;;;20.02;1.88;;;10.50;99.90;;;;;;5054881;28;20017;-74
2023/08/10 03:33:06;;;;;;;60.75;2.30;;;10.50;99.90;;;;;;5054491;28;20104;-74
2023/08/10 03:35:32;;;;;;;6.72;1.38;;;10.50;99.90;;;;;;5054713;28;20110;-74
2023/08/10 03:37:57;;;;;;;2.88;1.77;;;10.60;99.90;;;;;;5054507;28;20021;-74
2023/08/10 03:40:23;;;;;;;3.72;1.60;;;10.60;99.90;;;;;;5054410;28;20479;-74
2023/08/10 03:42:48;;;;;;;60.50;3.22;;;10.60;99.90;;;;;;5054366;28;20049;-74
2023/08/10 03:45:14;;;;;;;10.40;1.40;;;10.60;99.90;;;;;;5054302;28;20025;-73
2023/08/10 03:47:40;;;;;;;33.72;2.05;;;10.60;99.90;;;;;;5054188;28;20134;-74
2023/08/10 03:50:07;;;;;;;21.95;1.58;;;10.60;99.90;;;;;;5054875;28;20053;-74
2023/08/10 03:52:32;;;;;;;80.80;2.20;;;10.70;99.90;;;;;;5054142;28;20413;-74
2023/08/10 03:54:58;;;;;;;74.43;2.70;;;10.70;99.90;;;;;;5054364;28;20021;-74
2023/08/10 03:57:23;;;;;;;13.32;1.73;;;10.70;99.90;;;;;;5054208;28;20040;-74
2023/08/10 03:59:49;;;;;;;40.70;2.00;;;10.60;99.90;;;;;;5052786;28;20048;-74
2023/08/10 04:02:15;;;;;;;7.70;1.58;;;10.70;99.90;;;;;;5054238;28;20091;-74
2023/08/10 04:04:40;;;;;;;5.65;2.05;;;10.70;99.90;;;;;;5054266;28;20017;-74
2023/08/10 04:07:07;;;;;;;4.95;1.75;;;10.60;99.90;;;;;;5054450;28;20028;-73
2023/08/10 04:09:34;;;;;;;6.53;1.83;;;10.50;99.90;;;;;;5054189;28;20013;-74
2023/08/10 04:11:59;;;;;;;12.30;1.58;;;10.40;99.90;;;;;;5054128;28;20016;-74
2023/08/10 04:14:25;;;;;;;6.13;1.65;;;10.30;99.90;;;;;;5053847;28;20464;-74
2023/08/10 04:16:51;;;;;;;2.78;1.52;;;10.40;99.90;;;;;;5054019;28;20115;-74
2023/08/10 04:19:17;;;;;;;14.07;1.60;;;10.40;99.90;;;;;;5053466;28;20051;-74
2023/08/10 04:21:44;;;;;;;5.15;1.40;;;10.40;99.90;;;;;;5053815;28;20033;-74
2023/08/10 04:24:10;;;;;;;15.43;2.08;;;10.40;99.90;;;;;;5053984;28;20032;-74
2023/08/10 04:26:36;;;;;;;66.15;2.38;;;10.50;99.90;;;;;;5053711;28;20043;-73
2023/08/10 04:29:03;;;;;;;4.78;1.73;;;10.60;99.90;;;;;;5054211;28;20017;-74
2023/08/10 04:31:29;;;;;;;7.18;1.98;;;10.60;99.90;;;;;;5053522;28;20025;-73
2023/08/10 04:33:54;;;;;;;17.95;1.70;;;10.60;99.90;;;;;;5053631;28;20025;-73
2023/08/10 04:36:20;;;;;;;6.30;1.70;;;10.60;99.90;;;;;;5053937;28;20021;-73
2023/08/10 04:38:45;;;;;;;2.42;1.58;;;10.50;99.90;;;;;;5053850;28;20021;-74
2023/08/10 04:41:11;;;;;;;10.27;1.60;;;10.40;99.90;;;;;;5054328;28;20166;-74
2023/08/10 04:43:37;;;;;;;3.10;1.30;;;10.40;99.90;;;;;;5053519;28;20437;-73
2023/08/10 04:46:02;;;;;;;6.10;1.58;;;10.40;99.90;;;;;;5053485;28;20024;-73
2023/08/10 04:48:28;;;;;;;5.45;1.70;;;10.40;99.90;;;;;;5053147;28;20056;-73
2023/08/10 04:50:53;;;;;;;9.13;1.98;;;10.50;99.90;;;;;;5053342;28;20033;-74
2023/08/10 04:53:19;;;;;;;3.85;1.95;;;10.50;99.90;;;;;;5053520;28;20021;-74
2023/08/10 04:55:45;;;;;;;5.75;2.10;;;10.60;99.90;;;;;;5053357;28;20060;-73
2023/08/10 04:58:11;;;;;;;15.13;1.92;;;10.60;99.90;;;;;;5053108;28;20025;-73
2023/08/10 05:00:37;;;;;;;2.50;1.60;;;10.70;99.90;;;;;;5055713;28;20422;-73
2023/08/10 05:03:02;;;;;;;33.97;1.98;;;10.90;99.90;;;;;;5055987;28;20025;-73
2023/08/10 05:05:28;;;;;;;404.55;8.50;;;11.00;99.90;;;;;;5057443;28;20028;-74
2023/08/10 05:07:54;;;;;;;521.40;11.80;;;11.10;99.90;;;;;;5055781;28;20442;-73
2023/08/10 05:10:19;;;;;;;199.60;6.57;;;11.20;99.90;;;;;;5057028;28;20025;-74
2023/08/10 05:12:45;;;;;;;643.45;17.88;;;11.20;99.90;;;;;;5057068;28;20017;-74
2023/08/10 05:15:11;;;;;;;274.73;6.88;;;11.10;99.90;;;;;;5056737;28;20377;-75
2023/08/10 05:17:38;;;;;;;671.50;16.73;;;11.20;99.90;;;;;;5056816;28;20453;-73
2023/08/10 05:20:10;;;;;;;86.13;3.53;;;11.20;99.90;;;;;;5057281;28;20029;-74
2023/08/10 05:22:37;;;;;;;28.55;2.45;;;11.20;99.90;;;;;;5057401;28;20357;-74
2023/08/10 05:25:05;;;;;;;263.88;7.45;;;11.20;99.90;;;;;;5056849;28;20073;-75
2023/08/10 05:27:31;;;;;;;325.88;8.35;;;11.30;99.90;;;;;;5056506;28;20029;-74
2023/08/10 05:29:57;;;;;;;5.47;2.08;;;11.30;99.90;;;;;;5056696;28;20100;-74
2023/08/10 05:32:22;;;;;;;361.05;9.30;;;11.30;99.90;;;;;;5056928;28;20100;-74
2023/08/10 05:34:48;;;;;;;342.55;8.00;;;11.30;99.90;;;;;;5056586;28;20361;-74
2023/08/10 05:37:14;;;;;;;385.98;8.18;;;11.30;99.90;;;;;;5056544;28;20025;-74
2023/08/10 05:39:39;;;;;;;463.10;10.45;;;11.30;99.90;;;;;;5056541;28;20025;-74
2023/08/10 05:42:05;;;;;;;709.70;13.98;;;11.30;99.90;;;;;;5057325;28;20318;-74
2023/08/10 05:44:31;;;;;;;179.77;4.63;;;11.20;99.90;;;;;;5056927;28;20092;-74
2023/08/10 05:46:57;;;;;;;52.25;4.05;;;11.30;99.90;;;;;;5056383;28;20059;-74
2023/08/10 05:49:22;;;;;;;53.38;3.08;;;11.30;99.90;;;;;;5056268;28;20044;-73
2023/08/10 05:51:48;;;;;;;3.92;2.15;;;11.30;99.90;;;;;;5056243;28;20029;-74
2023/08/10 05:54:14;;;;;;;4.82;2.50;;;11.40;99.90;;;;;;5056988;28;20025;-74
2023/08/10 05:56:40;;;;;;;6.53;2.50;;;11.50;99.90;;;;;;5056189;28;20519;-74
2023/08/10 05:59:05;;;;;;;4.45;2.70;;;11.50;99.90;;;;;;5054897;28;20054;-74
2023/08/10 06:01:31;;;;;;;4.80;3.00;;;11.60;99.90;;;;;;5056186;28;20023;-74
2023/08/10 06:03:57;;;;;;;5.05;2.92;;;11.80;99.90;;;;;;5056640;28;20059;-74
2023/08/10 06:06:22;;;;;;;4.22;2.72;;;11.90;99.90;;;;;;5056063;28;20083;-74
2023/08/10 06:08:48;;;;;;;8.45;3.13;;;12.00;99.90;;;;;;5055979;28;20125;-74
2023/08/10 06:11:14;;;;;;;5.18;3.30;;;12.10;99.90;;;;;;5054465;28;20021;-74
2023/08/10 06:13:41;;;;;;;7.45;3.10;;;12.20;99.90;;;;;;5055613;28;20029;-74
2023/08/10 06:16:07;;;;;;;6.57;3.25;;;12.30;99.90;;;;;;5055878;28;20036;-74
2023/08/10 06:18:34;;;;;;;8.23;3.10;;;12.30;99.90;;;;;;5054349;28;20033;-74
2023/08/10 06:21:01;;;;;;;6.38;3.05;;;12.30;99.90;;;;;;5056354;28;20056;-72
2023/08/10 06:23:28;;;;;;;5.28;3.28;;;12.40;99.90;;;;;;5055947;28;20056;-74
2023/08/10 06:25:54;;;;;;;5.38;3.22;;;12.50;99.90;;;;;;5055279;28;20407;-74
2023/08/10 06:28:20;;;;;;;5.88;3.28;;;12.60;99.90;;;;;;5055632;28;20017;-74
2023/08/10 06:30:46;;;;;;;4.93;3.40;;;12.90;99.90;;;;;;5055356;28;20021;-73
2023/08/10 06:33:12;;;;;;;11.38;3.65;;;13.00;99.90;;;;;;5054681;28;20017;-73
2023/08/10 06:35:39;;;;;;;7.25;3.75;;;13.20;99.90;;;;;;5055750;28;20400;-73
2023/08/10 06:38:05;;;;;;;8.07;3.80;;;13.30;99.90;;;;;;5055598;28;20024;-73
2023/08/10 06:40:34;;;;;;;6.43;3.72;;;13.50;99.90;;;;;;5055626;28;20445;-72
2023/08/10 06:42:59;;;;;;;5.13;3.22;;;13.80;99.90;;;;;;5055339;28;20063;-73
2023/08/10 06:45:25;;;;;;;8.18;3.58;;;14.00;99.90;;;;;;5055341;28;20036;-74
2023/08/10 06:47:51;;;;;;;5.85;3.60;;;14.10;99.90;;;;;;5054647;28;20021;-75
2023/08/10 06:50:17;;;;;;;6.50;3.30;;;14.30;99.90;;;;;;5055390;28;20033;-74
2023/08/10 06:52:44;;;;;;;5.68;3.60;;;14.50;99.90;;;;;;5055428;28;20025;-75
2023/08/10 06:55:11;;;;;;;7.25;3.35;;;14.60;99.90;;;;;;5055019;28;20450;-74
2023/08/10 06:57:37;;;;;;;4.35;3.17;;;14.70;99.90;;;;;;5055206;28;20028;-73
2023/08/10 07:00:07;;;;;;;8.38;3.42;;;14.80;99.90;;;;;;5054971;28;20361;-74
2023/08/10 07:02:34;;;;;;;4.18;2.90;;;14.90;99.90;;;;;;5055341;28;20445;-72
2023/08/10 07:05:00;;;;;;;4.72;2.92;;;14.90;99.90;;;;;;5055159;28;20021;-73
2023/08/10 07:07:26;;;;;;;5.55;2.70;;;15.00;99.90;;;;;;5054865;28;20021;-73
2023/08/10 07:09:52;;;;;;;4.38;2.58;;;15.10;99.90;;;;;;5055138;28;20028;-74
2023/08/10 07:12:18;;;;;;;6.28;2.55;;;15.20;99.90;;;;;;5055025;28;20021;-74
2023/08/10 07:14:44;;;;;;;3.72;2.50;;;15.40;99.90;;;;;;5054744;28;20115;-76
2023/08/10 07:17:09;;;;;;;4.55;2.72;;;15.40;99.90;;;;;;5054350;28;20147;-75
2023/08/10 07:19:36;;;;;;;4.65;2.20;;;15.60;99.90;;;;;;5054872;28;20025;-74
2023/08/10 07:22:02;;;;;;;3.05;2.15;;;15.70;99.90;;;;;;5054429;28;20029;-76
2023/08/10 07:24:28;;;;;;;5.45;2.40;;;15.90;99.90;;;;;;5054722;28;20025;-74
2023/08/10 07:26:54;;;;;;;3.50;2.10;;;15.90;99.90;;;;;;5053668;28;20389;-73
2023/08/10 07:29:20;;;;;;;4.80;2.40;;;16.10;99.90;;;;;;5054059;28;20470;-73
2023/08/10 07:31:46;;;;;;;4.50;2.25;;;16.30;99.90;;;;;;5054441;28;20097;-73
2023/08/10 07:34:12;;;;;;;3.65;2.25;;;16.50;99.90;;;;;;5055126;28;20021;-74
2023/08/10 07:36:38;;;;;;;3.83;1.88;;;16.70;99.90;;;;;;5054300;28;20507;-73
2023/08/10 07:39:03;;;;;;;5.88;2.15;;;16.80;99.90;;;;;;5052906;28;20033;-74
2023/08/10 07:41:29;;;;;;;2.60;1.80;;;17.00;99.90;;;;;;5054226;28;20060;-73
2023/08/10 07:43:55;;;;;;;3.83;2.10;;;17.10;99.90;;;;;;5054419;28;20468;-73
2023/08/10 07:46:20;;;;;;;7.00;2.08;;;17.20;99.90;;;;;;5054030;28;20036;-72
2023/08/10 07:48:46;;;;;;;4.00;1.70;;;17.20;99.90;;;;;;5053816;28;20050;-73
2023/08/10 07:51:12;;;;;;;4.05;2.00;;;17.40;99.90;;;;;;5053632;28;20458;-73
2023/08/10 07:53:38;;;;;;;3.47;2.00;;;17.50;99.90;;;;;;5052750;28;20029;-74
2023/08/10 07:56:03;;;;;;;2.63;1.75;;;17.50;99.90;;;;;;5054305;28;20094;-75
2023/08/10 07:58:29;;;;;;;3.97;2.15;;;17.60;99.90;;;;;;5053902;28;20025;-73
2023/08/10 08:00:58;;;;;;;3.05;1.73;;;17.80;99.90;;;;;;5053941;28;20028;-75
2023/08/10 08:03:24;;;;;;;3.35;1.83;;;17.70;99.90;;;;;;5053457;28;20071;-74
2023/08/10 08:05:50;;;;;;;3.10;1.80;;;17.80;99.90;;;;;;5054382;28;20388;-74
2023/08/10 08:08:15;;;;;;;6.85;1.75;;;17.90;99.90;;;;;;5054009;28;20016;-73
2023/08/10 08:10:43;;;;;;;5.45;1.92;;;18.00;99.90;;;;;;5053785;28;20017;-75
2023/08/10 08:13:08;;;;;;;3.83;1.88;;;18.20;99.90;;;;;;5053734;28;20102;-74
2023/08/10 08:15:35;;;;;;;4.35;1.88;;;18.30;99.90;;;;;;5053623;28;20466;-74
2023/08/10 08:18:38;;;;;;;3.22;1.92;;;18.40;99.90;;;;;;5053734;28;20045;-74
2023/08/10 08:21:04;;;;;;;5.75;2.00;;;18.60;99.90;;;;;;5053619;28;20029;-74
2023/08/10 08:23:30;;;;;;;2.30;1.70;;;18.80;99.90;;;;;;5053657;28;20033;-74
2023/08/10 08:25:55;;;;;;;6.40;2.00;;;18.80;99.90;;;;;;5053812;28;20025;-74
2023/08/10 08:28:22;;;;;;;2.70;1.60;;;18.90;99.90;;;;;;5052827;28;20036;-74
2023/08/10 08:30:48;;;;;;;5.25;1.70;;;19.00;99.90;;;;;;5053292;28;20025;-74
2023/08/10 08:33:14;;;;;;;3.65;2.13;;;19.10;99.90;;;;;;5054158;28;20032;-74
2023/08/10 08:35:45;;;;;;;6.43;1.88;;;19.20;99.90;;;;;;5051407;28;20085;-74
2023/08/10 08:38:11;;;;;;;3.20;1.98;;;19.10;99.90;;;;;;5054095;28;20021;-74
2023/08/10 08:40:36;;;;;;;3.97;1.75;;;19.10;99.90;;;;;;5053477;28;20028;-74
2023/08/10 08:43:03;;;;;;;3.05;1.73;;;19.00;99.90;;;;;;5053963;28;20472;-73
2023/08/10 08:45:30;;;;;;;4.28;1.80;;;19.10;99.90;;;;;;5052461;28;20021;-74
2023/08/10 08:47:57;;;;;;;2.90;1.83;;;19.10;99.90;;;;;;5053057;28;20469;-75
2023/08/10 08:50:24;;;;;;;4.70;1.83;;;19.30;99.90;;;;;;5053750;28;20357;-74
2023/08/10 08:52:51;;;;;;;3.40;1.83;;;19.50;99.90;;;;;;5053551;28;20036;-74
2023/08/10 08:55:17;;;;;;;3.63;1.80;;;19.70;99.90;;;;;;5052580;28;20025;-74
2023/08/10 08:57:43;;;;;;;2.85;1.55;;;19.80;99.90;;;;;;5053499;28;20414;-74
2023/08/10 09:00:09;;;;;;;2.70;1.80;;;19.90;99.90;;;;;;5052002;28;20033;-74
2023/08/10 09:02:35;;;;;;;6.80;2.00;;;20.00;99.90;;;;;;5053593;28;20036;-73
2023/08/10 09:05:04;;;;;;;3.25;2.00;;;20.00;99.90;;;;;;5053161;28;20454;-74
2023/08/10 09:07:30;;;;;;;3.67;1.75;;;19.90;99.90;;;;;;5053228;28;20033;-74
2023/08/10 09:09:56;;;;;;;3.35;1.90;;;19.80;99.90;;;;;;5052933;28;20021;-76
2023/08/10 09:12:31;;;;;;;3.72;1.88;;;19.80;99.90;;;;;;5053446;28;20115;-75
2023/08/10 09:15:03;;;;;;;3.42;2.17;;;19.80;99.90;;;;;;5053136;28;20025;-73
2023/08/10 09:17:34;;;;;;;2.72;1.88;;;19.80;99.90;;;;;;5053323;28;20094;-73
2023/08/10 09:20:00;;;;;;;3.70;2.13;;;19.90;99.90;;;;;;5053199;28;20033;-76
2023/08/10 09:22:34;;;;;;;4.05;2.00;;;20.10;99.90;;;;;;5053156;28;20363;-75
2023/08/10 09:25:01;;;;;;;2.65;1.88;;;20.20;99.90;;;;;;5052703;28;20020;-73
2023/08/10 09:27:27;;;;;;;3.53;2.13;;;20.20;99.90;;;;;;5053382;28;20438;-74
2023/08/10 09:29:57;;;;;;;2.72;1.83;;;20.50;99.90;;;;;;5053029;28;20027;-76
2023/08/10 09:32:23;;;;;;;6.13;2.20;;;20.40;99.90;;;;;;5053045;28;20017;-77
2023/08/10 09:34:49;;;;;;;4.18;2.10;;;20.30;99.90;;;;;;5052912;28;20021;-74
2023/08/10 09:37:15;;;;;;;5.78;2.50;;;20.40;99.90;;;;;;5052906;28;20032;-76
2023/08/10 09:39:41;;;;;;;4.57;2.63;;;20.60;99.90;;;;;;5051851;28;20027;-74
2023/08/10 09:42:07;;;;;;;3.97;2.03;;;20.80;99.90;;;;;;5052586;28;20021;-74
2023/08/10 09:44:46;;;;;;;3.00;1.92;;;21.10;99.90;;;;;;5053012;28;20021;-74
2023/08/10 09:47:17;;;;;;;3.33;1.85;;;21.50;99.90;;;;;;5055826;28;20033;-75
2023/08/10 09:49:56;;;;;;;2.63;1.80;;;21.50;99.90;;;;;;5056832;28;20041;-76
2023/08/10 09:52:25;;;;;;;6.55;1.98;;;21.60;99.90;;;;;;5056232;28;20032;-75
2023/08/10 09:54:52;;;;;;;3.35;1.80;;;21.30;99.90;;;;;;5057019;28;20029;-75
2023/08/10 09:57:19;;;;;;;4.90;2.00;;;21.30;99.90;;;;;;5056485;28;20025;-74
2023/08/10 09:59:47;;;;;;;3.28;2.10;;;21.30;99.90;;;;;;5056837;28;20043;-76
2023/08/10 10:02:14;;;;;;;3.10;2.03;;;21.40;99.90;;;;;;5056560;28;20033;-74
2023/08/10 10:04:40;;;;;;;2.97;2.10;;;21.40;99.90;;;;;;5056210;28;20501;-74
2023/08/10 10:07:07;;;;;;;2.67;1.90;;;21.20;99.90;;;;;;5056093;28;20021;-75
2023/08/10 10:09:40;;;;;;;3.67;2.00;;;21.10;99.90;;;;;;5056445;28;20550;-74
2023/08/10 10:12:13;;;;;;;2.97;2.20;;;21.30;99.90;;;;;;5056087;28;20024;-73
2023/08/10 10:14:44;;;;;;;3.33;2.35;;;21.30;99.90;;;;;;5055999;28;20045;-74
2023/08/10 10:17:12;;;;;;;8.90;2.10;;;21.60;99.90;;;;;;5056053;28;20102;-74
2023/08/10 10:19:39;;;;;;;3.67;1.83;;;22.10;99.90;;;;;;5055939;28;20029;-77
2023/08/10 10:22:05;;;;;;;3.85;2.53;;;22.50;99.90;;;;;;5055838;28;20369;-74
2023/08/10 10:24:32;;;;;;;7.15;2.22;;;22.30;99.90;;;;;;5054931;28;20020;-75
2023/08/10 10:26:59;;;;;;;2.95;1.88;;;22.00;99.90;;;;;;5055754;28;20031;-76
2023/08/10 10:29:38;;;;;;;4.47;2.58;;;22.00;99.90;;;;;;5055729;28;20021;-74
2023/08/10 10:32:10;;;;;;;4.15;2.20;;;22.00;99.90;;;;;;5055770;28;20119;-74
2023/08/10 10:34:37;;;;;;;6.57;2.47;;;21.90;99.90;;;;;;5055588;28;20021;-74
2023/08/10 10:37:30;;;;;;;4.18;2.20;;;21.90;99.90;;;;;;5055044;28;20338;-74
2023/08/10 10:40:14;;;;;;;4.07;2.45;;;21.90;99.90;;;;;;5053604;28;20064;-74
2023/08/10 10:43:01;;;;;;;3.85;2.58;;;21.90;99.90;;;;;;5055923;28;20204;-75
2023/08/10 10:45:27;;;;;;;5.38;2.50;;;22.30;99.90;;;;;;5055438;28;20039;-73
2023/08/10 10:47:55;;;;;;;4.25;2.10;;;22.50;99.90;;;;;;5055195;28;20024;-76
2023/08/10 10:50:30;;;;;;;4.30;2.00;;;22.70;99.90;;;;;;5055711;28;20104;-75
2023/08/10 10:53:02;;;;;;;3.83;2.50;;;23.10;99.90;;;;;;5055037;28;20361;-76
2023/08/10 10:55:37;;;;;;;5.82;2.63;;;23.40;99.90;;;;;;5055582;28;20044;-75
2023/08/10 10:58:04;;;;;;;6.30;2.58;;;22.80;99.90;;;;;;5054889;28;20021;-74
2023/08/10 11:00:30;;;;;;;7.97;2.85;;;22.90;99.90;;;;;;5054985;28;20025;-75
2023/08/10 11:02:56;;;;;;;7.07;2.55;;;23.20;99.90;;;;;;5055239;28;20024;-78
2023/08/10 11:05:22;;;;;;;4.65;2.80;;;23.10;99.90;;;;;;5055791;28;20452;-75
2023/08/10 11:07:50;;;;;;;3.38;2.30;;;22.90;99.90;;;;;;5055351;28;20029;-74
2023/08/10 11:10:17;;;;;;;4.10;2.80;;;22.70;99.90;;;;;;5055030;28;20052;-73
2023/08/10 11:12:44;;;;;;;4.97;2.28;;;22.90;99.90;;;;;;5055302;28;20048;-74
2023/08/10 11:15:13;;;;;;;4.05;2.60;;;23.10;99.90;;;;;;5055206;28;20349;-74
2023/08/10 11:17:41;;;;;;;4.88;2.40;;;23.30;99.90;;;;;;5054446;28;20033;-76
2023/08/10 11:20:14;;;;;;;3.47;2.47;;;23.50;99.90;;;;;;5054202;28;20345;-73
2023/08/10 11:22:43;;;;;;;3.67;2.22;;;23.90;99.90;;;;;;5055350;28;20021;-74
2023/08/10 11:25:20;;;;;;;3.28;2.00;;;24.00;99.90;;;;;;5055378;28;20094;-74
2023/08/10 11:27:49;;;;;;;4.53;2.08;;;23.90;99.90;;;;;;5054806;28;20028;-74
2023/08/10 11:30:21;;;;;;;3.33;2.33;;;24.00;99.30;;;;;;5055005;28;20021;-75
2023/08/10 11:32:49;;;;;;;3.70;2.10;;;24.00;98.80;;;;;;5054932;28;20039;-75
2023/08/10 11:35:18;;;;;;;5.60;2.28;;;24.00;97.90;;;;;;5054607;28;20099;-75
2023/08/10 11:37:44;;;;;;;4.78;2.33;;;24.00;98.20;;;;;;5054510;28;20041;-76
2023/08/10 11:40:17;;;;;;;3.78;2.55;;;24.30;98.80;;;;;;5055026;28;20025;-76
2023/08/10 11:42:48;;;;;;;4.55;2.33;;;24.70;99.90;;;;;;5054801;28;20013;-74
2023/08/10 11:45:23;;;;;;;3.38;2.25;;;24.70;98.20;;;;;;5054550;28;20083;-75
2023/08/10 11:47:51;;;;;;;5.65;2.50;;;24.70;98.10;;;;;;5054378;28;20470;-75
2023/08/10 11:50:18;;;;;;;6.38;2.13;;;24.80;99.90;;;;;;5054304;28;20073;-75
2023/08/10 11:52:44;;;;;;;5.90;2.30;;;24.40;98.80;;;;;;5054034;28;20089;-75
2023/08/10 11:55:13;;;;;;;5.45;1.83;;;24.40;96.60;;;;;;5054181;28;20036;-75
2023/08/10 11:57:42;;;;;;;2.92;2.05;;;24.60;95.60;;;;;;5054045;28;20021;-74
2023/08/10 12:00:30;;;;;;;5.70;2.55;;;25.00;97.30;;;;;;5053796;28;20045;-78
2023/08/10 12:02:59;;;;;;;3.03;1.92;;;25.30;99.40;;;;;;5054096;28;20174;-74
2023/08/10 12:06:00;;;;;;;5.00;2.33;;;25.50;98.20;;;;;;5054411;28;20021;-75
2023/08/10 12:08:29;;;;;;;4.88;2.35;;;25.20;97.50;;;;;;5054218;28;20029;-75
2023/08/10 12:11:01;;;;;;;4.30;2.22;;;24.80;97.60;;;;;;5052628;28;20104;-74
2023/08/10 12:13:27;;;;;;;3.88;2.28;;;25.00;98.30;;;;;;5052923;28;20052;-76
2023/08/10 12:15:55;;;;;;;3.17;2.28;;;24.90;96.20;;;;;;5053893;28;20040;-75
2023/08/10 12:18:22;;;;;;;8.48;2.40;;;25.00;95.00;;;;;;5053502;28;20044;-74
2023/08/10 12:20:50;;;;;;;4.15;2.20;;;25.30;96.50;;;;;;5054055;28;20119;-75
2023/08/10 12:23:17;;;;;;;4.13;2.40;;;25.40;96.50;;;;;;5053722;28;20059;-75
2023/08/10 12:25:44;;;;;;;4.28;2.58;;;25.10;97.30;;;;;;5054196;28;20029;-75
2023/08/10 12:28:10;;;;;;;3.25;2.10;;;25.30;97.20;;;;;;5053668;28;20017;-75
2023/08/10 12:30:36;;;;;;;5.30;2.47;;;25.70;96.80;;;;;;5053411;28;20082;-75
2023/08/10 12:33:03;;;;;;;3.05;2.30;;;25.40;96.10;;;;;;5053869;28;20036;-76
2023/08/10 12:35:28;;;;;;;3.30;2.20;;;25.00;96.50;;;;;;5053557;28;20515;-74
2023/08/10 12:37:54;;;;;;;3.22;2.15;;;24.60;98.00;;;;;;5053919;28;20114;-73
2023/08/10 12:40:21;;;;;;;3.25;2.22;;;24.50;98.30;;;;;;5053470;28;20454;-74
2023/08/10 12:42:47;;;;;;;4.15;2.33;;;24.50;97.70;;;;;;5053752;28;20079;-74
2023/08/10 12:45:14;;;;;;;3.63;2.13;;;24.20;96.30;;;;;;5054286;28;20493;-76